Time;durP1;ratioP1;P1;durP2;ratioP2;P2;SDS_P1;SDS_P2;PMS_P1;PMS_P2;Temp;Humidity;BMP_temperature;BMP_pressure;BME280_temperature;BME280_humidity;BME280_pressure;Samples;Min_cycle;Max_cycle;Signal;HPM_P1;HPM_P2
2022/10/24 00:00:57;;;;;;;1.65;1.20;;;17.10;69.50;;;;;;5090373;28;20055;-74
2022/10/24 00:03:24;;;;;;;1.70;1.35;;;17.20;69.60;;;;;;5090532;28;20105;-74
2022/10/24 00:05:50;;;;;;;3.00;1.33;;;15.70;68.80;;;;;;5076286;28;20091;-74
2022/10/24 00:08:17;;;;;;;1.95;1.40;;;17.20;69.60;;;;;;5070325;28;20123;-74
2022/10/24 00:10:45;;;;;;;2.03;1.23;;;17.10;69.60;;;;;;5070077;28;20056;-74
2022/10/24 00:13:13;;;;;;;2.97;1.33;;;17.10;69.60;;;;;;5070444;28;20052;-74
2022/10/24 00:15:40;;;;;;;3.13;1.45;;;17.10;69.60;;;;;;5070216;28;20064;-74
2022/10/24 00:18:07;;;;;;;2.22;1.35;;;17.10;69.60;;;;;;5069823;28;20119;-74
2022/10/24 00:20:35;;;;;;;2.20;1.50;;;17.10;69.60;;;;;;5087003;28;20056;-74
2022/10/24 00:23:02;;;;;;;1.88;1.30;;;17.10;69.60;;;;;;5091059;28;20142;-74
2022/10/24 00:25:29;;;;;;;2.10;1.38;;;17.10;69.60;;;;;;5093954;28;20136;-74
2022/10/24 00:27:56;;;;;;;3.78;1.33;;;17.10;69.60;;;;;;5094339;28;20056;-74
2022/10/24 00:30:24;;;;;;;2.92;1.20;;;17.10;69.60;;;;;;5094939;28;20044;-74
2022/10/24 00:32:51;;;;;;;2.45;1.17;;;17.10;69.60;;;;;;5094124;28;20056;-74
2022/10/24 00:35:17;;;;;;;2.38;1.30;;;17.10;69.60;;;;;;5094594;28;20054;-74
2022/10/24 00:37:44;;;;;;;1.58;1.20;;;17.10;69.60;;;;;;5093943;28;20611;-74
2022/10/24 00:40:12;;;;;;;1.83;1.15;;;17.10;69.60;;;;;;5093808;28;20067;-74
2022/10/24 00:42:39;;;;;;;2.15;1.40;;;17.10;69.60;;;;;;5093455;28;20511;-74
2022/10/24 00:45:41;;;;;;;3.22;1.50;;;17.10;70.20;;;;;;5093764;28;20051;-74
2022/10/24 00:48:14;;;;;;;2.00;1.30;;;17.10;69.50;;;;;;5086658;28;20052;-74
2022/10/24 00:50:41;;;;;;;2.38;1.38;;;17.10;69.70;;;;;;5073266;28;20072;-74
2022/10/24 00:53:08;;;;;;;3.70;1.63;;;17.10;69.70;;;;;;5073393;28;20049;-74
2022/10/24 00:55:34;;;;;;;1.70;1.33;;;17.10;69.70;;;;;;5073511;28;20048;-74
2022/10/24 00:58:01;;;;;;;1.83;1.27;;;17.10;69.70;;;;;;5073510;28;20074;-74
2022/10/24 01:00:31;;;;;;;2.10;1.30;;;17.10;69.70;;;;;;5072993;28;20196;-74
2022/10/24 01:02:59;;;;;;;2.25;1.30;;;17.10;69.70;;;;;;5083152;28;20062;-74
2022/10/24 01:05:27;;;;;;;1.55;1.27;;;17.00;69.60;;;;;;5092991;28;20052;-74
2022/10/24 01:07:57;;;;;;;2.15;1.30;;;17.10;69.60;;;;;;5093247;28;20127;-74
2022/10/24 01:10:32;;;;;;;1.92;1.30;;;17.00;69.60;;;;;;5093549;28;20533;-74
2022/10/24 01:13:02;;;;;;;2.78;1.40;;;17.10;69.60;;;;;;5093312;28;20056;-74
2022/10/24 01:15:34;;;;;;;1.20;1.10;;;17.00;69.60;;;;;;5093074;28;20052;-74
2022/10/24 01:18:05;;;;;;;1.77;1.50;;;17.00;69.60;;;;;;5092476;28;20058;-74
2022/10/24 01:20:45;;;;;;;1.90;1.20;;;17.00;69.70;;;;;;5091278;28;20051;-75
2022/10/24 01:23:23;;;;;;;2.28;1.40;;;17.00;69.60;;;;;;5093305;28;20066;-75
2022/10/24 01:25:55;;;;;;;1.70;1.35;;;17.00;69.70;;;;;;5092960;28;20047;-74
2022/10/24 01:28:22;;;;;;;1.40;1.30;;;17.00;69.70;;;;;;5093082;28;20048;-74
2022/10/24 01:30:52;;;;;;;1.45;1.05;;;17.00;69.70;;;;;;5092750;28;20056;-74
2022/10/24 01:33:20;;;;;;;1.75;1.35;;;17.00;69.70;;;;;;5091094;28;20043;-74
2022/10/24 01:35:49;;;;;;;2.03;1.30;;;17.00;69.70;;;;;;5092192;28;20066;-74
2022/10/24 01:38:19;;;;;;;1.88;1.20;;;17.00;69.70;;;;;;5092778;28;20044;-74
2022/10/24 01:40:50;;;;;;;2.47;1.23;;;17.00;69.70;;;;;;5092423;28;20056;-74
2022/10/24 01:43:19;;;;;;;2.20;1.20;;;17.00;69.70;;;;;;5092847;28;20060;-74
2022/10/24 01:45:47;;;;;;;1.77;1.23;;;17.00;69.70;;;;;;5092679;28;20052;-74
2022/10/24 01:48:17;;;;;;;1.52;1.27;;;17.00;69.70;;;;;;5086182;28;20490;-74
2022/10/24 01:50:44;;;;;;;1.83;1.20;;;17.00;69.70;;;;;;5071873;28;20052;-75
2022/10/24 01:53:11;;;;;;;1.50;1.27;;;17.00;69.70;;;;;;5072430;28;20067;-74
2022/10/24 01:55:38;;;;;;;1.63;1.17;;;17.00;69.70;;;;;;5072868;28;20048;-74
2022/10/24 01:58:05;;;;;;;2.60;1.50;;;17.00;69.70;;;;;;5072689;28;20048;-75
2022/10/24 02:00:32;;;;;;;2.13;1.33;;;17.00;69.70;;;;;;5072403;28;20572;-75
2022/10/24 02:03:00;;;;;;;1.70;1.30;;;17.00;69.70;;;;;;5081159;28;20051;-75
2022/10/24 02:05:29;;;;;;;1.45;1.20;;;17.00;69.70;;;;;;5093306;28;20251;-75
2022/10/24 02:07:58;;;;;;;1.73;1.10;;;17.00;69.60;;;;;;5093111;28;20048;-75
2022/10/24 02:10:27;;;;;;;1.45;1.10;;;17.00;69.60;;;;;;5093634;28;20052;-75
2022/10/24 02:12:56;;;;;;;2.17;1.30;;;17.00;69.60;;;;;;5093026;28;20047;-75
2022/10/24 02:15:24;;;;;;;1.38;1.02;;;17.00;69.60;;;;;;5092553;28;20062;-75
2022/10/24 02:17:51;;;;;;;2.03;1.27;;;17.00;69.60;;;;;;5080012;28;20056;-75
2022/10/24 02:20:18;;;;;;;2.60;1.17;;;17.00;70.10;;;;;;5073233;28;20053;-75
2022/10/24 02:22:49;;;;;;;1.98;1.20;;;17.00;69.60;;;;;;5072370;28;20404;-75
2022/10/24 02:25:18;;;;;;;2.15;1.25;;;17.00;69.50;;;;;;5072523;28;20056;-75
2022/10/24 02:27:47;;;;;;;1.80;1.40;;;17.00;69.60;;;;;;5072451;28;20055;-75
2022/10/24 02:30:15;;;;;;;2.38;1.13;;;17.00;69.60;;;;;;5073250;28;20397;-75
2022/10/24 02:32:43;;;;;;;1.48;1.15;;;17.00;69.60;;;;;;5088323;28;20078;-75
2022/10/24 02:35:11;;;;;;;1.90;1.10;;;17.00;69.60;;;;;;5092964;28;20485;-75
2022/10/24 02:37:40;;;;;;;1.35;1.23;;;17.00;69.60;;;;;;5091956;28;20060;-75
2022/10/24 02:40:09;;;;;;;1.85;1.30;;;17.00;69.70;;;;;;5092097;28;20047;-75
2022/10/24 02:42:35;;;;;;;1.48;1.10;;;17.00;69.70;;;;;;5092108;28;20062;-75
2022/10/24 02:45:02;;;;;;;2.20;1.17;;;17.00;69.70;;;;;;5092249;28;20082;-75
2022/10/24 02:47:29;;;;;;;1.30;1.00;;;17.00;69.60;;;;;;5073644;28;20250;-75
2022/10/24 02:49:55;;;;;;;2.20;1.10;;;17.00;69.60;;;;;;5071784;28;20053;-75
2022/10/24 02:52:22;;;;;;;1.73;1.15;;;17.00;69.70;;;;;;5072010;28;20061;-75
2022/10/24 02:54:49;;;;;;;1.48;1.00;;;17.00;69.70;;;;;;5071814;28;20490;-74
2022/10/24 02:57:17;;;;;;;2.10;1.20;;;17.00;69.70;;;;;;5077483;28;20074;-75
2022/10/24 02:59:44;;;;;;;2.40;1.40;;;17.00;69.70;;;;;;5091212;28;20134;-75
2022/10/24 03:02:11;;;;;;;2.08;1.30;;;17.00;69.60;;;;;;5091802;28;20054;-75
2022/10/24 03:04:37;;;;;;;1.80;1.30;;;17.00;69.70;;;;;;5091716;28;20051;-74
2022/10/24 03:07:06;;;;;;;1.27;1.10;;;17.00;69.70;;;;;;5091924;28;20051;-75
2022/10/24 03:09:33;;;;;;;1.33;1.10;;;16.90;69.60;;;;;;5091846;28;20056;-75
2022/10/24 03:11:59;;;;;;;1.48;1.10;;;17.00;69.70;;;;;;5091577;28;20138;-75
2022/10/24 03:14:27;;;;;;;1.83;1.17;;;17.00;69.70;;;;;;5088982;28;20070;-74
2022/10/24 03:16:54;;;;;;;1.10;1.00;;;16.90;69.60;;;;;;5072360;28;20058;-75
2022/10/24 03:19:21;;;;;;;1.38;1.10;;;16.90;69.60;;;;;;5071410;28;20052;-75
2022/10/24 03:21:47;;;;;;;1.17;1.00;;;16.90;69.60;;;;;;5070983;28;20056;-74
2022/10/24 03:24:14;;;;;;;1.40;1.20;;;16.90;69.60;;;;;;5072522;28;20052;-74
2022/10/24 03:26:41;;;;;;;1.58;1.30;;;17.00;69.70;;;;;;5071386;28;20067;-75
2022/10/24 03:29:08;;;;;;;1.98;1.10;;;16.90;69.60;;;;;;5076810;28;20060;-75
2022/10/24 03:31:36;;;;;;;1.80;1.27;;;16.90;69.60;;;;;;5091356;28;20499;-75
2022/10/24 03:34:03;;;;;;;1.30;1.08;;;16.90;69.70;;;;;;5091462;28;20048;-75
2022/10/24 03:36:30;;;;;;;1.20;1.00;;;16.90;69.70;;;;;;5091711;28;20058;-75
2022/10/24 03:38:56;;;;;;;1.67;1.08;;;16.90;69.70;;;;;;5092696;28;20410;-74
2022/10/24 03:41:23;;;;;;;1.77;1.10;;;16.90;69.70;;;;;;5091339;28;20051;-75
2022/10/24 03:43:50;;;;;;;1.38;1.20;;;16.90;69.70;;;;;;5084245;28;20080;-75
2022/10/24 03:46:16;;;;;;;2.08;1.13;;;16.90;69.70;;;;;;5072357;28;20050;-75
2022/10/24 03:48:44;;;;;;;1.40;1.10;;;16.90;70.20;;;;;;5071540;28;20063;-75
2022/10/24 03:51:11;;;;;;;2.03;1.33;;;16.90;69.70;;;;;;5071290;28;20060;-75
2022/10/24 03:53:38;;;;;;;2.33;1.10;;;16.90;69.70;;;;;;5071044;28;20060;-73
2022/10/24 03:56:05;;;;;;;2.00;1.20;;;16.90;69.70;;;;;;5070512;28;20053;-73
2022/10/24 03:58:32;;;;;;;1.70;1.20;;;16.90;69.70;;;;;;5083362;28;20048;-74
2022/10/24 04:00:58;;;;;;;1.80;1.13;;;16.90;69.70;;;;;;5094144;28;20056;-73
2022/10/24 04:03:25;;;;;;;1.27;1.10;;;16.90;69.70;;;;;;5094762;28;20074;-73
2022/10/24 04:05:53;;;;;;;1.40;1.20;;;16.90;69.70;;;;;;5094704;28;20051;-73
2022/10/24 04:08:20;;;;;;;2.25;1.20;;;16.90;69.80;;;;;;5094546;28;20062;-73
2022/10/24 04:10:48;;;;;;;1.58;1.10;;;16.90;69.70;;;;;;5094101;28;20052;-73
2022/10/24 04:13:14;;;;;;;1.98;1.30;;;16.90;69.70;;;;;;5081599;28;20135;-73
2022/10/24 04:15:41;;;;;;;1.38;1.00;;;16.90;69.70;;;;;;5075397;28;20139;-73
2022/10/24 04:18:08;;;;;;;1.52;1.13;;;16.90;69.70;;;;;;5075005;28;20056;-73
2022/10/24 04:20:35;;;;;;;2.03;1.30;;;16.90;69.70;;;;;;5074881;28;20056;-73
2022/10/24 04:23:03;;;;;;;2.97;1.20;;;16.90;69.70;;;;;;5073737;28;20052;-73
2022/10/24 04:25:30;;;;;;;2.08;1.38;;;16.90;69.60;;;;;;5073763;28;20056;-74
2022/10/24 04:27:57;;;;;;;3.28;1.17;;;16.90;69.60;;;;;;5070751;28;20131;-73
2022/10/24 04:30:24;;;;;;;2.08;1.02;;;16.90;69.60;;;;;;5075399;28;20059;-73
2022/10/24 04:32:51;;;;;;;1.35;1.00;;;16.90;69.50;;;;;;5073899;28;20507;-73
2022/10/24 04:35:18;;;;;;;1.75;1.20;;;16.90;69.50;;;;;;5073942;28;20056;-73
2022/10/24 04:37:44;;;;;;;2.10;1.65;;;16.90;69.50;;;;;;5073772;28;20058;-73
2022/10/24 04:40:12;;;;;;;1.83;1.40;;;16.90;69.50;;;;;;5073149;28;20595;-73
2022/10/24 04:42:39;;;;;;;1.67;1.10;;;16.90;69.50;;;;;;5090314;28;20056;-73
2022/10/24 04:45:07;;;;;;;1.60;1.23;;;16.90;70.10;;;;;;5093705;28;20052;-73
2022/10/24 04:47:34;;;;;;;1.30;1.10;;;16.90;69.50;;;;;;5094043;28;20058;-73
2022/10/24 04:50:01;;;;;;;1.13;1.00;;;16.90;69.50;;;;;;5093572;28;20481;-73
2022/10/24 04:52:27;;;;;;;1.85;1.23;;;16.90;69.50;;;;;;5093685;28;20139;-73
2022/10/24 04:54:54;;;;;;;1.50;1.10;;;16.90;69.50;;;;;;5093900;28;20055;-73
2022/10/24 04:57:22;;;;;;;1.73;1.13;;;16.90;69.60;;;;;;5074695;28;20059;-73
2022/10/24 04:59:49;;;;;;;1.70;1.20;;;16.90;69.50;;;;;;5074438;28;20052;-73
2022/10/24 05:02:16;;;;;;;1.98;1.23;;;16.90;69.60;;;;;;5093514;28;20060;-73
2022/10/24 05:04:43;;;;;;;2.00;1.30;;;16.90;69.60;;;;;;5093309;28;20559;-73
2022/10/24 05:07:09;;;;;;;1.70;1.23;;;16.90;69.60;;;;;;5093309;28;20133;-73
2022/10/24 05:09:36;;;;;;;1.45;1.10;;;16.90;69.60;;;;;;5092117;28;20062;-73
2022/10/24 05:12:03;;;;;;;1.50;1.10;;;16.90;69.60;;;;;;5094416;28;20404;-73
2022/10/24 05:14:32;;;;;;;1.33;1.00;;;16.90;69.60;;;;;;5094130;28;20044;-73
2022/10/24 05:16:58;;;;;;;1.10;1.00;;;16.80;69.60;;;;;;5093339;28;20062;-74
2022/10/24 05:19:25;;;;;;;1.67;1.25;;;16.90;69.60;;;;;;5093212;28;20050;-73
2022/10/24 05:21:52;;;;;;;1.52;1.00;;;16.90;69.60;;;;;;5093913;28;20074;-73
2022/10/24 05:24:19;;;;;;;1.33;1.17;;;16.90;69.60;;;;;;5089952;28;20139;-73
2022/10/24 05:26:46;;;;;;;1.73;1.10;;;16.90;69.60;;;;;;5073117;28;20068;-75
2022/10/24 05:29:13;;;;;;;2.75;1.20;;;16.80;69.60;;;;;;5074046;28;20405;-75
2022/10/24 05:31:41;;;;;;;2.63;1.20;;;16.80;69.60;;;;;;5074676;28;20048;-75
2022/10/24 05:34:07;;;;;;;2.45;1.25;;;16.90;69.60;;;;;;5073630;28;20052;-75
2022/10/24 05:36:34;;;;;;;1.58;1.17;;;16.80;69.60;;;;;;5073425;28;20523;-74
2022/10/24 05:39:01;;;;;;;2.92;1.17;;;16.80;69.60;;;;;;5078005;28;20051;-75
2022/10/24 05:41:28;;;;;;;1.98;1.40;;;16.80;69.60;;;;;;5094808;28;20450;-75
2022/10/24 05:43:55;;;;;;;1.45;1.00;;;16.80;69.60;;;;;;5093730;28;20139;-75
2022/10/24 05:46:21;;;;;;;1.20;1.10;;;16.80;69.60;;;;;;5094309;28;20475;-75
2022/10/24 05:48:49;;;;;;;1.42;1.20;;;16.80;69.60;;;;;;5093744;28;20052;-75
2022/10/24 05:51:16;;;;;;;2.50;1.20;;;16.80;69.60;;;;;;5083634;28;20647;-75
2022/10/24 05:53:43;;;;;;;1.10;1.00;;;16.80;69.60;;;;;;5073730;28;20053;-75
2022/10/24 05:56:10;;;;;;;2.78;1.10;;;16.80;69.60;;;;;;5072999;28;20549;-73
2022/10/24 05:58:36;;;;;;;1.50;1.20;;;16.80;69.60;;;;;;5072262;28;20052;-73
2022/10/24 06:01:03;;;;;;;1.30;1.05;;;16.80;69.60;;;;;;5079250;28;20059;-73
2022/10/24 06:03:30;;;;;;;1.63;1.05;;;16.80;69.60;;;;;;5090846;28;20139;-73
2022/10/24 06:05:58;;;;;;;1.38;1.10;;;16.80;69.60;;;;;;5092602;28;20052;-73
2022/10/24 06:08:24;;;;;;;2.38;1.17;;;16.80;70.10;;;;;;5093522;28;20091;-73
2022/10/24 06:10:52;;;;;;;1.55;1.10;;;16.80;69.60;;;;;;5091303;28;20140;-74
2022/10/24 06:13:19;;;;;;;2.65;1.17;;;16.80;69.60;;;;;;5092913;28;20111;-75
2022/10/24 06:15:45;;;;;;;1.90;1.20;;;16.80;69.60;;;;;;5092875;28;20055;-73
2022/10/24 06:18:12;;;;;;;1.75;1.20;;;16.80;69.60;;;;;;5093063;28;20052;-73
2022/10/24 06:20:39;;;;;;;1.95;1.10;;;16.80;69.60;;;;;;5090612;28;20054;-73
2022/10/24 06:23:07;;;;;;;1.58;1.10;;;16.80;69.60;;;;;;5092090;28;20052;-73
2022/10/24 06:25:34;;;;;;;2.28;1.23;;;16.80;69.60;;;;;;5092240;28;20052;-74
2022/10/24 06:28:00;;;;;;;1.90;1.15;;;16.80;69.60;;;;;;5093133;28;20404;-73
2022/10/24 06:30:27;;;;;;;1.50;1.20;;;16.80;69.70;;;;;;5078548;28;20048;-73
2022/10/24 06:32:54;;;;;;;2.00;1.33;;;16.80;69.70;;;;;;5087344;28;20056;-73
2022/10/24 06:35:20;;;;;;;1.73;1.20;;;16.80;69.70;;;;;;5086156;28;20044;-73
2022/10/24 06:37:47;;;;;;;1.73;1.20;;;16.80;69.70;;;;;;5092012;28;20056;-74
2022/10/24 06:40:15;;;;;;;1.83;1.13;;;16.80;69.70;;;;;;5073051;28;20052;-74
2022/10/24 06:42:42;;;;;;;3.63;1.58;;;16.80;69.70;;;;;;5071400;28;20059;-74
2022/10/24 06:45:09;;;;;;;2.20;1.25;;;16.80;69.70;;;;;;5071766;28;20405;-74
2022/10/24 06:47:36;;;;;;;2.53;1.10;;;16.80;69.60;;;;;;5072483;28;20048;-74
2022/10/24 06:50:03;;;;;;;1.17;1.08;;;16.80;69.60;;;;;;5070989;28;20048;-74
2022/10/24 06:52:30;;;;;;;1.55;1.23;;;16.80;69.60;;;;;;5071314;28;20744;-74
2022/10/24 06:54:56;;;;;;;2.90;1.35;;;16.80;69.50;;;;;;5071170;28;20052;-74
2022/10/24 06:57:24;;;;;;;1.20;1.10;;;16.80;69.40;;;;;;5071356;28;20063;-74
2022/10/24 06:59:52;;;;;;;2.95;1.77;;;16.90;69.40;;;;;;5088446;28;20044;-75
2022/10/24 07:02:18;;;;;;;1.65;1.10;;;16.90;69.40;;;;;;5091000;28;20059;-73
2022/10/24 07:04:45;;;;;;;2.17;1.20;;;16.90;69.40;;;;;;5091487;28;20054;-73
2022/10/24 07:07:14;;;;;;;2.20;1.10;;;16.90;69.40;;;;;;5091605;28;20074;-73
2022/10/24 07:09:41;;;;;;;1.42;1.10;;;16.90;69.40;;;;;;5090809;28;20044;-73
2022/10/24 07:12:08;;;;;;;2.65;1.23;;;17.00;69.50;;;;;;5084104;28;20051;-73
2022/10/24 07:14:36;;;;;;;2.08;1.30;;;17.00;69.70;;;;;;5077553;28;20097;-73
2022/10/24 07:17:04;;;;;;;2.30;1.40;;;17.00;69.70;;;;;;5076007;28;20049;-73
2022/10/24 07:19:31;;;;;;;1.48;1.20;;;17.00;69.70;;;;;;5076156;28;20693;-73
2022/10/24 07:21:57;;;;;;;2.10;1.02;;;17.00;69.70;;;;;;5079982;28;20056;-73
2022/10/24 07:24:24;;;;;;;1.70;1.20;;;17.00;69.60;;;;;;5079371;28;20052;-73
2022/10/24 07:26:51;;;;;;;1.80;1.20;;;17.10;69.70;;;;;;5078569;28;20051;-72
2022/10/24 07:29:17;;;;;;;2.05;1.30;;;17.10;69.80;;;;;;5091167;28;20569;-73
2022/10/24 07:31:46;;;;;;;10.52;1.88;;;17.10;69.80;;;;;;5085590;28;20052;-71
2022/10/24 07:34:15;;;;;;;8.85;3.45;;;17.10;69.90;;;;;;5070686;28;20055;-71
2022/10/24 07:36:41;;;;;;;7.50;1.90;;;17.10;70.00;;;;;;5071351;28;20049;-74
2022/10/24 07:39:08;;;;;;;11.80;3.08;;;17.20;70.10;;;;;;5086232;28;20062;-73
2022/10/24 07:41:37;;;;;;;12.73;2.08;;;17.20;70.10;;;;;;5090115;28;20390;-73
2022/10/24 07:44:04;;;;;;;7.75;2.97;;;17.20;70.20;;;;;;5090443;28;20671;-76
2022/10/24 07:46:31;;;;;;;10.13;2.28;;;17.20;70.20;;;;;;5090558;28;20143;-75
2022/10/24 07:48:59;;;;;;;9.63;3.08;;;17.30;70.30;;;;;;5089518;28;20148;-75
2022/10/24 07:51:27;;;;;;;7.97;2.55;;;17.30;70.30;;;;;;5090710;28;20062;-75
2022/10/24 07:53:54;;;;;;;12.20;2.92;;;17.30;70.40;;;;;;5090871;28;20135;-73
2022/10/24 07:56:21;;;;;;;11.18;2.70;;;17.30;70.30;;;;;;5091844;28;20416;-73
2022/10/24 07:58:47;;;;;;;11.80;2.75;;;17.30;70.40;;;;;;5090448;28;20401;-73
2022/10/24 08:01:15;;;;;;;6.10;2.38;;;17.30;70.50;;;;;;5074160;28;20070;-74
2022/10/24 08:03:42;;;;;;;7.07;2.30;;;17.30;70.80;;;;;;5096578;28;20087;-74
2022/10/24 08:06:11;;;;;;;7.45;2.05;;;17.30;71.00;;;;;;5091581;28;20048;-73
2022/10/24 08:08:38;;;;;;;9.32;2.83;;;17.30;71.10;;;;;;5089587;28;20060;-73
2022/10/24 08:11:07;;;;;;;6.35;2.63;;;17.40;71.10;;;;;;5091251;28;20048;-75
2022/10/24 08:13:34;;;;;;;9.88;2.15;;;17.40;71.10;;;;;;5090100;28;20058;-75
2022/10/24 08:16:01;;;;;;;6.85;2.30;;;17.30;71.20;;;;;;5088530;28;20654;-75
2022/10/24 08:18:28;;;;;;;7.00;2.40;;;17.30;71.30;;;;;;5090442;28;20060;-76
2022/10/24 08:20:58;;;;;;;6.68;2.20;;;17.30;71.40;;;;;;5089348;28;20652;-74
2022/10/24 08:23:27;;;;;;;9.35;2.50;;;17.40;71.50;;;;;;5085228;28;20059;-75
2022/10/24 08:25:53;;;;;;;8.90;2.75;;;17.30;71.20;;;;;;5089451;28;20056;-74
2022/10/24 08:28:22;;;;;;;8.80;2.10;;;17.30;71.00;;;;;;5090318;28;20066;-76
2022/10/24 08:30:55;;;;;;;8.82;2.20;;;17.40;71.10;;;;;;5080805;28;20663;-73
2022/10/24 08:33:22;;;;;;;8.57;2.85;;;17.40;70.90;;;;;;5073872;28;20058;-73
2022/10/24 08:35:49;;;;;;;5.50;2.13;;;17.30;70.90;;;;;;5088394;28;20075;-74
2022/10/24 08:38:16;;;;;;;9.32;2.83;;;17.30;70.90;;;;;;5089678;28;20052;-73
2022/10/24 08:40:47;;;;;;;9.30;2.83;;;17.40;71.10;;;;;;5089162;28;20058;-73
2022/10/24 08:43:14;;;;;;;8.95;2.65;;;17.40;71.10;;;;;;5089864;28;20052;-73
2022/10/24 08:45:44;;;;;;;8.50;3.00;;;17.30;71.10;;;;;;5094048;28;20062;-73
2022/10/24 08:48:13;;;;;;;8.57;2.90;;;17.30;71.10;;;;;;5092413;28;20051;-73
2022/10/24 08:50:41;;;;;;;8.52;2.95;;;17.30;71.00;;;;;;5093222;28;20048;-74
2022/10/24 08:53:10;;;;;;;6.88;2.78;;;17.30;70.90;;;;;;5094017;28;20052;-73
2022/10/24 08:55:38;;;;;;;11.07;2.92;;;17.40;70.80;;;;;;5093594;28;20048;-73
2022/10/24 08:58:11;;;;;;;11.57;2.85;;;17.30;70.80;;;;;;5094060;28;20129;-73
2022/10/24 09:00:39;;;;;;;10.13;2.75;;;17.30;70.70;;;;;;5093617;28;20410;-73
2022/10/24 09:03:12;;;;;;;10.65;2.65;;;17.30;70.70;;;;;;5080042;28;20048;-75
2022/10/24 09:05:41;;;;;;;8.55;2.58;;;17.40;70.60;;;;;;5073483;28;20057;-74
2022/10/24 09:08:16;;;;;;;8.35;2.70;;;17.30;70.50;;;;;;5073457;28;20052;-74
2022/10/24 09:10:49;;;;;;;9.63;2.83;;;17.40;70.50;;;;;;5073371;28;20052;-75
2022/10/24 09:13:17;;;;;;;8.18;2.45;;;17.30;70.50;;;;;;5074238;28;20401;-75
2022/10/24 09:15:45;;;;;;;5.82;2.72;;;17.40;70.50;;;;;;5073511;28;20056;-75
2022/10/24 09:18:15;;;;;;;8.32;2.70;;;17.40;70.40;;;;;;5089334;28;20050;-75
2022/10/24 09:20:42;;;;;;;10.20;3.40;;;17.40;70.30;;;;;;5073134;28;20059;-74
2022/10/24 09:23:12;;;;;;;7.47;2.35;;;17.40;70.30;;;;;;5074142;28;20106;-74
2022/10/24 09:25:40;;;;;;;6.72;2.60;;;17.40;70.20;;;;;;5073252;28;20056;-74
2022/10/24 09:28:06;;;;;;;7.05;2.50;;;17.40;70.20;;;;;;5073325;28;20066;-75
2022/10/24 09:30:35;;;;;;;9.23;2.88;;;17.40;70.20;;;;;;5072930;28;20056;-74
2022/10/24 09:33:20;;;;;;;8.73;2.50;;;17.40;70.10;;;;;;5076729;28;20083;-75
2022/10/24 09:35:46;;;;;;;7.13;2.33;;;17.40;70.10;;;;;;5093596;28;20052;-74
2022/10/24 09:38:32;;;;;;;8.38;2.80;;;17.40;70.10;;;;;;5092631;28;20070;-74
2022/10/24 09:41:01;;;;;;;6.45;2.35;;;17.50;70.10;;;;;;5092247;28;20603;-73
2022/10/24 09:43:32;;;;;;;8.52;2.80;;;17.40;70.00;;;;;;5093031;28;20055;-73
2022/10/24 09:46:03;;;;;;;8.05;3.03;;;17.40;70.00;;;;;;5093767;28;20066;-73
2022/10/24 09:48:38;;;;;;;7.35;2.58;;;17.40;70.00;;;;;;5092031;28;20052;-73
2022/10/24 09:51:05;;;;;;;7.68;2.53;;;17.40;70.00;;;;;;5092286;28;20064;-73
2022/10/24 09:53:33;;;;;;;7.85;2.50;;;17.40;70.00;;;;;;5093068;28;20403;-73
2022/10/24 09:56:01;;;;;;;6.80;2.50;;;17.40;70.00;;;;;;5092552;28;20062;-73
2022/10/24 09:58:31;;;;;;;5.65;2.38;;;17.40;70.00;;;;;;5092200;28;20052;-73
2022/10/24 10:01:00;;;;;;;7.57;2.47;;;17.30;70.20;;;;;;5092136;28;20047;-74
2022/10/24 10:03:28;;;;;;;7.78;2.40;;;17.40;70.00;;;;;;5078246;28;20512;-73
2022/10/24 10:05:55;;;;;;;6.72;2.10;;;17.40;69.90;;;;;;5072419;28;20385;-73
2022/10/24 10:08:23;;;;;;;6.65;2.47;;;17.40;69.90;;;;;;5071994;28;20064;-74
2022/10/24 10:10:56;;;;;;;7.78;2.47;;;17.50;70.00;;;;;;5071466;28;20549;-73
2022/10/24 10:13:24;;;;;;;7.35;2.00;;;17.50;69.90;;;;;;5077177;28;20048;-74
2022/10/24 10:15:52;;;;;;;7.78;2.28;;;17.40;69.90;;;;;;5071896;28;20057;-74
2022/10/24 10:18:29;;;;;;;5.68;2.15;;;17.40;70.00;;;;;;5090113;28;20046;-74
2022/10/24 10:21:03;;;;;;;7.10;2.42;;;17.40;69.90;;;;;;5081609;28;20056;-74
2022/10/24 10:23:32;;;;;;;4.20;1.80;;;17.40;69.90;;;;;;5080742;28;20514;-74
2022/10/24 10:26:08;;;;;;;4.53;2.00;;;17.40;69.80;;;;;;5082337;28;20048;-74
2022/10/24 10:28:36;;;;;;;5.10;2.28;;;17.50;69.70;;;;;;5082380;28;20052;-74
2022/10/24 10:31:02;;;;;;;5.85;2.40;;;17.50;69.80;;;;;;5081058;28;20055;-74
2022/10/24 10:33:35;;;;;;;5.15;2.00;;;17.50;69.70;;;;;;5079067;28;20432;-74
2022/10/24 10:36:05;;;;;;;5.05;2.13;;;17.50;69.60;;;;;;5078767;28;20094;-74
2022/10/24 10:38:52;;;;;;;5.85;2.40;;;17.60;69.50;;;;;;5082075;28;20052;-73
2022/10/24 10:41:25;;;;;;;3.65;1.98;;;17.60;69.30;;;;;;5079230;28;20056;-73
2022/10/24 10:43:55;;;;;;;4.60;1.88;;;17.60;69.30;;;;;;5065319;28;20052;-74
2022/10/24 10:46:28;;;;;;;3.85;1.70;;;17.60;69.20;;;;;;5081262;28;20052;-74
2022/10/24 10:49:01;;;;;;;4.70;1.85;;;17.60;69.10;;;;;;5077436;28;20505;-73
2022/10/24 10:51:33;;;;;;;3.03;1.90;;;17.70;69.10;;;;;;5071300;28;20053;-74
2022/10/24 10:54:02;;;;;;;3.03;1.80;;;17.70;69.00;;;;;;5071240;28;20553;-73
2022/10/24 10:56:32;;;;;;;2.95;1.52;;;17.70;68.90;;;;;;5075778;28;20459;-73
2022/10/24 10:59:06;;;;;;;3.42;1.90;;;17.80;68.90;;;;;;5069276;28;20581;-74
2022/10/24 11:01:37;;;;;;;3.45;1.67;;;17.80;68.90;;;;;;5071963;28;20183;-74
2022/10/24 11:04:07;;;;;;;3.58;1.60;;;17.80;68.90;;;;;;5075447;28;20052;-74
2022/10/24 11:06:39;;;;;;;3.70;1.60;;;17.80;68.90;;;;;;5090588;28;20051;-73
2022/10/24 11:09:37;;;;;;;4.22;1.58;;;17.80;68.80;;;;;;5090854;28;20135;-74
2022/10/24 11:12:10;;;;;;;3.90;1.80;;;17.90;68.70;;;;;;5091036;28;20510;-74
2022/10/24 11:14:38;;;;;;;3.25;1.60;;;17.90;68.70;;;;;;5085886;28;20055;-74
2022/10/24 11:17:11;;;;;;;2.90;1.40;;;17.90;68.60;;;;;;5084637;28;20048;-74
2022/10/24 11:19:49;;;;;;;4.18;1.70;;;17.90;68.50;;;;;;5087591;28;20585;-73
2022/10/24 11:22:20;;;;;;;2.53;1.60;;;18.00;68.50;;;;;;5066310;28;20408;-73
2022/10/24 11:24:51;;;;;;;3.47;1.50;;;18.00;68.60;;;;;;5083817;28;20060;-74
2022/10/24 11:27:20;;;;;;;2.88;1.52;;;18.00;68.50;;;;;;5080845;28;20049;-73
2022/10/24 11:29:50;;;;;;;3.28;1.50;;;18.00;68.50;;;;;;5081821;28;20379;-73
2022/10/24 11:32:19;;;;;;;2.30;1.40;;;18.00;68.50;;;;;;5078391;28;20055;-73
2022/10/24 11:34:50;;;;;;;3.83;1.67;;;18.00;68.40;;;;;;5082311;28;20412;-73
2022/10/24 11:37:18;;;;;;;4.15;1.50;;;18.00;68.50;;;;;;5080725;28;20054;-74
2022/10/24 11:39:48;;;;;;;3.13;1.70;;;18.00;68.60;;;;;;5079308;28;20378;-73
2022/10/24 11:42:17;;;;;;;2.40;1.40;;;18.00;68.70;;;;;;5090583;28;20048;-73
2022/10/24 11:44:46;;;;;;;2.90;1.50;;;17.90;68.60;;;;;;5083313;28;20057;-73
2022/10/24 11:47:31;;;;;;;2.50;1.45;;;17.90;68.70;;;;;;5087180;28;20386;-73
2022/10/24 11:50:04;;;;;;;3.42;1.42;;;18.00;68.80;;;;;;5090619;28;20066;-74
2022/10/24 11:52:31;;;;;;;3.55;1.40;;;17.90;68.80;;;;;;5091964;28;20040;-73
2022/10/24 11:55:01;;;;;;;3.00;1.55;;;17.90;68.80;;;;;;5091876;28;20050;-74
2022/10/24 11:57:28;;;;;;;3.05;1.65;;;17.90;68.80;;;;;;5090614;28;20060;-74
2022/10/24 11:59:55;;;;;;;3.13;1.35;;;17.90;68.80;;;;;;5083065;28;20060;-74
2022/10/24 12:02:45;;;;;;;2.78;1.30;;;17.90;68.80;;;;;;5077081;28;20054;-74
2022/10/24 12:05:28;;;;;;;3.47;1.52;;;17.90;68.80;;;;;;5081126;28;20135;-74
2022/10/24 12:08:22;;;;;;;3.22;1.58;;;17.90;68.90;;;;;;5071602;28;20068;-74
2022/10/24 12:11:18;;;;;;;3.45;1.40;;;17.90;68.90;;;;;;5069997;28;20397;-74
2022/10/24 12:14:08;;;;;;;3.03;1.60;;;17.90;68.90;;;;;;5052978;28;20379;-73
2022/10/24 12:16:41;;;;;;;4.32;1.70;;;18.00;69.00;;;;;;5084272;28;20056;-74
2022/10/24 12:19:11;;;;;;;8.15;1.63;;;17.90;69.00;;;;;;5072333;28;20529;-75
2022/10/24 12:21:40;;;;;;;4.40;1.30;;;17.90;69.10;;;;;;5073544;28;20049;-73
2022/10/24 12:24:12;;;;;;;2.17;1.40;;;17.90;68.90;;;;;;5074254;28;20056;-75
2022/10/24 12:26:39;;;;;;;2.28;1.20;;;17.90;68.90;;;;;;5074970;28;20054;-75
2022/10/24 12:29:06;;;;;;;2.97;1.42;;;17.90;68.90;;;;;;5073114;28;20148;-74
2022/10/24 12:31:33;;;;;;;3.20;1.38;;;17.90;69.00;;;;;;5078610;28;20048;-74
2022/10/24 12:34:33;;;;;;;4.00;1.27;;;18.00;69.10;;;;;;5072602;28;20592;-74
2022/10/24 12:37:08;;;;;;;4.88;1.30;;;17.90;68.90;;;;;;5069133;28;20052;-74
2022/10/24 12:39:35;;;;;;;2.03;1.20;;;17.90;69.00;;;;;;5073665;28;20068;-74
2022/10/24 12:42:02;;;;;;;2.35;1.17;;;17.90;69.00;;;;;;5073324;28;20136;-74
2022/10/24 12:44:43;;;;;;;2.28;1.15;;;17.90;69.00;;;;;;5073244;28;20409;-74
2022/10/24 12:47:34;;;;;;;4.03;1.48;;;17.90;69.10;;;;;;5086489;28;20511;-74
2022/10/24 12:50:34;;;;;;;3.42;1.27;;;17.90;69.00;;;;;;5093604;28;20064;-74
2022/10/24 12:53:05;;;;;;;2.20;1.17;;;17.90;69.10;;;;;;5093459;28;20420;-73
2022/10/24 12:56:09;;;;;;;2.85;1.52;;;17.90;69.20;;;;;;5077487;28;20056;-74